createdAt,value
2019-03-27T00:00:22.897Z,99.90
2019-03-27T00:02:52.355Z,99.90
2019-03-27T00:05:21.718Z,99.90
2019-03-27T00:07:51.078Z,99.90
2019-03-27T00:10:20.495Z,99.90
2019-03-27T00:12:49.886Z,99.90
2019-03-27T00:15:19.236Z,99.90
2019-03-27T00:17:48.580Z,99.90
2019-03-27T00:20:18.107Z,99.90
2019-03-27T00:22:47.599Z,99.90
2019-03-27T00:25:17.049Z,99.90
2019-03-27T00:27:46.487Z,99.90
2019-03-27T00:30:17.774Z,99.90
2019-03-27T00:32:47.163Z,99.90
2019-03-27T00:35:16.507Z,99.90
2019-03-27T00:37:52.807Z,99.90
2019-03-27T00:40:22.213Z,99.90
2019-03-27T00:42:51.551Z,99.90
2019-03-27T00:45:26.779Z,99.90
2019-03-27T00:47:51.995Z,99.90
2019-03-27T00:50:21.353Z,99.90
2019-03-27T00:52:50.696Z,99.90
2019-03-27T00:55:20.045Z,99.90
2019-03-27T00:57:49.501Z,99.90
2019-03-27T01:00:25.131Z,99.90
2019-03-27T01:02:54.575Z,99.90
2019-03-27T01:05:24.074Z,99.90
2019-03-27T01:07:53.471Z,99.90
2019-03-27T01:10:22.819Z,99.90
2019-03-27T01:12:52.178Z,99.90
2019-03-27T01:15:21.641Z,99.90
2019-03-27T01:17:51.091Z,99.90
2019-03-27T01:20:20.496Z,99.90
2019-03-27T01:22:49.860Z,99.90
2019-03-27T01:25:19.215Z,99.90
2019-03-27T01:27:48.625Z,99.90
2019-03-27T01:30:18.386Z,99.90
2019-03-27T01:32:48.816Z,99.90
2019-03-27T01:35:18.180Z,99.90
2019-03-27T01:37:47.580Z,99.90
2019-03-27T01:40:16.932Z,99.90
2019-03-27T01:42:46.307Z,99.90
2019-03-27T01:45:15.722Z,99.90
2019-03-27T01:47:45.074Z,99.90
2019-03-27T01:50:14.498Z,99.90
2019-03-27T01:52:43.855Z,99.90
2019-03-27T01:55:13.299Z,99.90
2019-03-27T01:57:42.640Z,99.90
2019-03-27T02:00:12.346Z,99.90
2019-03-27T02:02:41.938Z,99.90
2019-03-27T02:05:11.443Z,99.90
2019-03-27T02:07:41.183Z,99.90
2019-03-27T02:10:11.279Z,99.90
2019-03-27T02:12:40.659Z,99.90
2019-03-27T02:15:11.374Z,99.90
2019-03-27T02:17:42.273Z,99.90
2019-03-27T02:20:11.850Z,99.90
2019-03-27T02:22:41.313Z,99.90
2019-03-27T02:25:10.793Z,99.90
2019-03-27T02:27:40.182Z,99.90
2019-03-27T02:30:09.986Z,99.90
2019-03-27T02:32:39.513Z,99.90
2019-03-27T02:35:08.951Z,99.90
2019-03-27T02:37:38.295Z,99.90
2019-03-27T02:40:07.891Z,99.90
2019-03-27T02:42:37.328Z,99.90
2019-03-27T02:45:07.811Z,99.90
2019-03-27T02:47:37.275Z,99.90
2019-03-27T02:50:08.031Z,99.90
2019-03-27T02:52:38.913Z,99.90
2019-03-27T02:55:08.729Z,99.90
2019-03-27T02:57:38.171Z,99.90
2019-03-27T03:00:10.567Z,99.90
2019-03-27T03:02:40.124Z,99.90
2019-03-27T03:05:10.823Z,99.90
2019-03-27T03:07:40.196Z,99.90
2019-03-27T03:10:10.970Z,99.90
2019-03-27T03:12:40.423Z,99.90
2019-03-27T03:15:10.278Z,99.90
2019-03-27T03:17:41.338Z,99.90
2019-03-27T03:20:10.975Z,99.90
2019-03-27T03:22:40.401Z,99.90
2019-03-27T03:25:10.192Z,99.90
2019-03-27T03:27:39.669Z,99.90
2019-03-27T03:30:10.661Z,99.90
2019-03-27T03:32:40.175Z,99.90
2019-03-27T03:35:10.723Z,99.90
2019-03-27T03:37:40.191Z,99.90
2019-03-27T03:40:10.237Z,99.90
2019-03-27T03:42:41.128Z,99.90
2019-03-27T03:45:10.712Z,99.90
2019-03-27T03:47:40.157Z,99.90
2019-03-27T03:50:29.549Z,99.90
2019-03-27T03:52:59.331Z,99.90
2019-03-27T03:55:29.233Z,99.90
2019-03-27T03:57:58.844Z,99.90
2019-03-27T04:00:28.336Z,99.90
2019-03-27T04:02:57.753Z,99.90
2019-03-27T04:05:27.188Z,99.90
2019-03-27T04:07:56.618Z,99.90
2019-03-27T04:10:26.055Z,99.90
2019-03-27T04:12:55.419Z,99.90
2019-03-27T04:15:24.837Z,99.90
2019-03-27T04:17:54.278Z,99.90
2019-03-27T04:20:23.696Z,99.90
2019-03-27T04:22:53.043Z,99.90
2019-03-27T04:25:22.398Z,99.90
2019-03-27T04:27:51.759Z,99.90
2019-03-27T04:30:21.130Z,99.90
2019-03-27T04:32:50.572Z,99.90
2019-03-27T04:35:19.932Z,99.90
2019-03-27T04:37:49.302Z,99.90
2019-03-27T04:40:18.659Z,99.90
2019-03-27T04:42:48.020Z,99.90
2019-03-27T04:45:17.726Z,99.90
2019-03-27T04:47:47.221Z,99.90
2019-03-27T04:50:16.569Z,99.90
2019-03-27T04:52:45.919Z,99.90
2019-03-27T04:55:15.391Z,99.90
2019-03-27T04:57:44.807Z,99.90
2019-03-27T05:00:14.828Z,99.90
2019-03-27T05:02:44.255Z,99.90
2019-03-27T05:05:13.843Z,99.90
2019-03-27T05:07:43.226Z,99.90
2019-03-27T05:10:13.118Z,99.90
2019-03-27T05:12:42.484Z,99.90
2019-03-27T05:15:12.031Z,99.90
2019-03-27T05:17:46.179Z,99.90
2019-03-27T05:20:12.773Z,99.90
2019-03-27T05:22:42.183Z,99.90
2019-03-27T05:25:11.667Z,99.90
2019-03-27T05:27:41.335Z,99.90
2019-03-27T05:30:13.260Z,99.90
2019-03-27T05:32:44.173Z,99.90
2019-03-27T05:35:13.582Z,99.90
2019-03-27T05:37:42.943Z,99.90
2019-03-27T05:40:12.379Z,99.90
2019-03-27T05:42:41.821Z,99.90
2019-03-27T05:45:11.389Z,99.90
2019-03-27T05:47:40.749Z,99.90
2019-03-27T05:50:11.052Z,99.90
2019-03-27T05:52:40.549Z,99.90
2019-03-27T05:55:10.048Z,99.90
2019-03-27T05:57:39.618Z,99.90
2019-03-27T06:00:10.375Z,99.90
2019-03-27T06:02:39.735Z,99.90
2019-03-27T06:05:09.336Z,99.90
2019-03-27T06:07:38.772Z,99.90
2019-03-27T06:10:08.321Z,99.90
2019-03-27T06:12:57.019Z,99.90
2019-03-27T06:15:26.378Z,99.90
2019-03-27T06:17:55.756Z,99.90
2019-03-27T06:20:25.189Z,99.90
2019-03-27T06:22:54.573Z,99.90
2019-03-27T06:25:24.107Z,99.90
2019-03-27T06:27:54.508Z,99.90
2019-03-27T06:30:30.920Z,99.90
2019-03-27T06:33:04.596Z,99.90
2019-03-27T06:35:33.967Z,99.90
2019-03-27T06:38:03.419Z,99.90
2019-03-27T06:40:32.848Z,99.90
2019-03-27T06:43:02.432Z,99.90
2019-03-27T06:45:32.721Z,99.90
2019-03-27T06:48:02.106Z,99.90
2019-03-27T06:50:31.471Z,99.90
2019-03-27T06:53:00.911Z,99.90
2019-03-27T06:55:30.262Z,99.90
2019-03-27T06:57:59.617Z,99.90
2019-03-27T07:00:37.444Z,99.90
2019-03-27T07:03:07.716Z,99.90
2019-03-27T07:05:38.179Z,99.90
2019-03-27T07:08:07.516Z,99.90
2019-03-27T07:10:36.862Z,99.90
2019-03-27T07:13:07.375Z,99.90
2019-03-27T07:15:36.823Z,99.90
2019-03-27T07:18:06.247Z,99.90
2019-03-27T07:20:35.596Z,99.90
2019-03-27T07:23:05.420Z,99.90
2019-03-27T07:25:34.834Z,99.90
2019-03-27T07:28:04.330Z,99.90
2019-03-27T07:30:33.697Z,99.90
2019-03-27T07:33:03.125Z,99.90
2019-03-27T07:35:32.504Z,99.90
2019-03-27T07:38:01.840Z,99.90
2019-03-27T07:40:31.283Z,99.90
2019-03-27T07:43:01.685Z,99.90
2019-03-27T07:45:31.051Z,99.90
2019-03-27T07:48:00.411Z,99.90
2019-03-27T07:50:30.980Z,99.90
2019-03-27T07:53:00.419Z,99.90
2019-03-27T07:55:29.779Z,99.90
2019-03-27T07:57:59.146Z,99.90
2019-03-27T08:00:28.579Z,99.90
2019-03-27T08:02:57.999Z,99.90
2019-03-27T08:05:27.403Z,99.90
2019-03-27T08:07:56.845Z,99.90
2019-03-27T08:10:26.264Z,99.90
2019-03-27T08:12:55.643Z,99.90
2019-03-27T08:15:26.895Z,99.90
2019-03-27T08:17:56.249Z,99.90
2019-03-27T08:20:25.620Z,99.90
2019-03-27T08:22:54.974Z,99.90
2019-03-27T08:25:24.355Z,99.90
2019-03-27T08:27:53.724Z,99.90
2019-03-27T08:30:23.237Z,99.90
2019-03-27T08:32:52.600Z,99.90
2019-03-27T08:35:22.044Z,99.90
2019-03-27T08:37:51.438Z,99.90
2019-03-27T08:40:20.856Z,99.90
2019-03-27T08:42:50.214Z,99.90
2019-03-27T08:45:20.364Z,99.90
2019-03-27T08:47:49.742Z,99.90
2019-03-27T08:50:19.076Z,99.90
2019-03-27T08:52:48.452Z,99.90
2019-03-27T08:55:17.863Z,99.90
2019-03-27T08:57:47.209Z,99.90
2019-03-27T09:00:21.276Z,99.90
2019-03-27T09:02:49.456Z,99.90
2019-03-27T09:05:18.961Z,99.90
2019-03-27T09:07:48.324Z,99.90
2019-03-27T09:10:17.920Z,99.90
2019-03-27T09:12:47.265Z,99.80
2019-03-27T09:15:16.683Z,98.50
2019-03-27T09:17:46.052Z,99.90
2019-03-27T09:20:15.838Z,99.90
2019-03-27T09:22:45.264Z,99.90
2019-03-27T09:25:14.784Z,99.90
2019-03-27T09:27:44.140Z,99.90
2019-03-27T09:30:14.160Z,99.90
2019-03-27T09:32:43.638Z,99.90
2019-03-27T09:35:13.222Z,98.70
2019-03-27T09:37:42.656Z,99.30
2019-03-27T09:40:12.504Z,99.90
2019-03-27T09:42:41.869Z,99.90
2019-03-27T09:45:12.555Z,99.90
2019-03-27T09:47:42.077Z,99.90
2019-03-27T09:50:11.547Z,99.90
2019-03-27T09:52:40.915Z,99.90
2019-03-27T09:55:10.481Z,99.90
2019-03-27T09:57:39.904Z,99.90
2019-03-27T10:00:10.105Z,99.90
2019-03-27T10:02:39.643Z,99.90
2019-03-27T10:05:09.047Z,99.90
2019-03-27T10:07:38.434Z,99.90
2019-03-27T10:10:08.259Z,98.50
2019-03-27T10:12:37.620Z,97.60
2019-03-27T10:15:08.028Z,97.60
2019-03-27T10:17:37.422Z,98.60
2019-03-27T10:20:07.131Z,99.00
2019-03-27T10:22:36.733Z,98.10
2019-03-27T10:25:08.085Z,98.20
2019-03-27T10:27:37.521Z,98.30
2019-03-27T10:30:08.998Z,97.70
2019-03-27T10:32:38.386Z,97.40
2019-03-27T10:35:08.363Z,98.40
2019-03-27T10:37:37.789Z,98.30
2019-03-27T10:40:07.821Z,99.00
2019-03-27T10:42:37.300Z,97.50
2019-03-27T10:45:07.914Z,97.70
2019-03-27T10:47:37.453Z,98.60
2019-03-27T10:50:17.428Z,98.10
2019-03-27T10:52:38.440Z,98.40
2019-03-27T10:55:08.014Z,98.80
2019-03-27T10:57:37.592Z,98.20
2019-03-27T11:00:11.142Z,98.40
2019-03-27T11:02:40.709Z,97.70
2019-03-27T11:05:10.281Z,97.80
2019-03-27T11:07:39.701Z,98.20
2019-03-27T11:10:09.895Z,97.90
2019-03-27T11:12:39.292Z,99.00
2019-03-27T11:15:09.334Z,99.40
2019-03-27T11:17:38.742Z,99.90
2019-03-27T11:20:09.505Z,99.90
2019-03-27T11:22:38.931Z,99.90
2019-03-27T11:25:09.032Z,99.90
2019-03-27T11:27:38.392Z,99.90
2019-03-27T11:30:08.894Z,99.90
2019-03-27T11:32:38.376Z,99.90
2019-03-27T11:35:08.040Z,99.30
2019-03-27T11:37:38.483Z,98.50
2019-03-27T11:40:08.679Z,98.00
2019-03-27T11:42:38.271Z,98.30
2019-03-27T11:45:08.383Z,97.80
2019-03-27T11:47:37.909Z,97.90
2019-03-27T11:50:09.462Z,97.00
2019-03-27T11:52:38.846Z,97.60
2019-03-27T11:55:08.625Z,96.40
2019-03-27T11:57:38.059Z,96.40
2019-03-27T12:00:09.615Z,97.00
2019-03-27T12:02:39.266Z,97.30
2019-03-27T12:05:08.905Z,98.90
2019-03-27T12:07:38.372Z,98.80
2019-03-27T12:10:08.517Z,96.80
2019-03-27T12:12:37.961Z,95.60
2019-03-27T12:15:09.325Z,97.50
2019-03-27T12:17:38.765Z,96.40
2019-03-27T12:20:08.977Z,96.90
2019-03-27T12:22:38.401Z,95.80
2019-03-27T12:25:07.894Z,97.70
2019-03-27T12:27:37.271Z,95.70
2019-03-27T12:30:08.060Z,96.10
2019-03-27T12:32:37.771Z,96.80
2019-03-27T12:35:07.266Z,97.40
2019-03-27T12:37:36.641Z,97.40
2019-03-27T12:40:11.297Z,97.20
2019-03-27T12:42:37.530Z,97.90
2019-03-27T12:45:07.521Z,98.10
2019-03-27T12:47:36.925Z,97.60
2019-03-27T12:50:08.180Z,96.80
2019-03-27T12:52:38.677Z,96.30
2019-03-27T12:55:08.273Z,98.00
2019-03-27T12:57:37.757Z,96.90
2019-03-27T13:00:09.166Z,96.30
2019-03-27T13:02:38.668Z,96.50
2019-03-27T13:05:28.956Z,98.10
2019-03-27T13:07:58.387Z,97.00
2019-03-27T13:10:27.880Z,98.50
2019-03-27T13:12:57.272Z,97.40
2019-03-27T13:15:26.710Z,97.80
2019-03-27T13:17:56.317Z,98.00
2019-03-27T13:20:28.389Z,96.60
2019-03-27T13:22:57.876Z,97.40
2019-03-27T13:25:27.335Z,97.00
2019-03-27T13:27:56.762Z,98.00
2019-03-27T13:30:26.113Z,97.50
2019-03-27T13:32:55.516Z,98.20
2019-03-27T13:35:25.991Z,99.20
2019-03-27T13:37:55.376Z,98.50
2019-03-27T13:40:24.736Z,98.50
2019-03-27T13:42:54.093Z,97.90
2019-03-27T13:45:23.610Z,98.00
2019-03-27T13:47:55.394Z,99.00
2019-03-27T13:50:25.055Z,99.50
2019-03-27T13:52:54.413Z,99.10
2019-03-27T13:55:25.584Z,98.50
2019-03-27T13:57:54.963Z,98.80
2019-03-27T14:00:24.470Z,99.70
2019-03-27T14:02:53.921Z,99.90
2019-03-27T14:05:23.422Z,97.70
2019-03-27T14:07:52.893Z,99.20
2019-03-27T14:10:22.372Z,98.20
2019-03-27T14:12:51.743Z,98.60
2019-03-27T14:15:21.572Z,98.00
2019-03-27T14:17:50.939Z,97.10
2019-03-27T14:20:20.729Z,97.90
2019-03-27T14:22:50.092Z,97.20
2019-03-27T14:25:22.075Z,97.70
2019-03-27T14:27:51.395Z,97.00
2019-03-27T14:30:29.481Z,97.30
2019-03-27T14:32:58.833Z,97.80
2019-03-27T14:35:28.186Z,97.20
2019-03-27T14:37:57.630Z,97.80
2019-03-27T14:40:26.973Z,99.00
2019-03-27T14:42:56.317Z,98.40
2019-03-27T14:45:25.695Z,98.40
2019-03-27T14:47:55.183Z,98.80
2019-03-27T14:50:24.554Z,98.00
2019-03-27T14:52:53.999Z,99.30
2019-03-27T14:55:23.450Z,98.90
2019-03-27T14:57:52.884Z,97.50
2019-03-27T15:00:22.314Z,99.50
2019-03-27T15:02:51.818Z,98.60
2019-03-27T15:05:21.328Z,98.60
2019-03-27T15:07:50.748Z,98.60
2019-03-27T15:10:20.113Z,98.30
2019-03-27T15:12:49.487Z,98.50
2019-03-27T15:15:19.051Z,98.40
2019-03-27T15:17:48.499Z,98.60
2019-03-27T15:20:17.968Z,99.60
2019-03-27T15:22:47.358Z,98.30
2019-03-27T15:25:16.699Z,99.70
2019-03-27T15:27:46.086Z,99.40
2019-03-27T15:30:15.877Z,98.90
2019-03-27T15:32:45.238Z,98.70
2019-03-27T15:35:14.948Z,98.10
2019-03-27T15:37:44.348Z,97.60
2019-03-27T15:40:14.271Z,97.80
2019-03-27T15:42:43.784Z,98.60
2019-03-27T15:45:13.315Z,98.80
2019-03-27T15:47:42.681Z,99.10
2019-03-27T15:50:12.187Z,99.70
2019-03-27T15:52:41.531Z,99.90
2019-03-27T15:55:12.146Z,99.90
2019-03-27T15:57:41.642Z,99.90
2019-03-27T16:00:12.128Z,99.90
2019-03-27T16:02:41.821Z,99.90
2019-03-27T16:05:11.330Z,99.90
2019-03-27T16:07:40.926Z,99.90
2019-03-27T16:10:10.466Z,99.90
2019-03-27T16:12:39.847Z,99.90
2019-03-27T16:15:11.115Z,99.90
2019-03-27T16:17:41.562Z,99.90
2019-03-27T16:20:14.684Z,99.90
2019-03-27T16:22:50.538Z,99.90
2019-03-27T16:25:15.309Z,99.90
2019-03-27T16:27:44.711Z,99.90
2019-03-27T16:30:17.195Z,99.90
2019-03-27T16:32:44.963Z,99.90
2019-03-27T16:35:14.369Z,99.90
2019-03-27T16:37:44.173Z,99.90
2019-03-27T16:40:15.112Z,99.90
2019-03-27T16:42:44.481Z,99.90
2019-03-27T16:45:15.062Z,99.90
2019-03-27T16:47:44.440Z,99.90
2019-03-27T16:50:15.417Z,99.90
2019-03-27T16:52:44.778Z,99.90
2019-03-27T16:55:14.272Z,99.90
2019-03-27T16:57:43.725Z,99.90
2019-03-27T17:00:13.487Z,99.90
2019-03-27T17:02:42.847Z,99.90
2019-03-27T17:05:15.667Z,99.90
2019-03-27T17:07:43.557Z,99.90
2019-03-27T17:10:14.210Z,99.90
2019-03-27T17:12:43.600Z,99.90
2019-03-27T17:15:13.460Z,99.90
2019-03-27T17:17:42.840Z,99.90
2019-03-27T17:20:13.250Z,99.90
2019-03-27T17:22:42.687Z,99.90
2019-03-27T17:25:12.203Z,99.90
2019-03-27T17:27:41.573Z,99.90
2019-03-27T17:30:12.124Z,99.90
2019-03-27T17:32:41.760Z,99.90
2019-03-27T17:35:11.311Z,99.90
2019-03-27T17:37:40.750Z,99.90
2019-03-27T17:40:10.948Z,99.90
2019-03-27T17:42:40.375Z,99.90
2019-03-27T17:45:09.884Z,99.90
2019-03-27T17:47:39.241Z,99.90
2019-03-27T17:50:09.200Z,99.90
2019-03-27T17:52:38.725Z,99.90
2019-03-27T17:55:08.946Z,99.90
2019-03-27T17:57:38.395Z,99.90
2019-03-27T18:00:15.003Z,99.90
2019-03-27T18:02:44.414Z,99.90
2019-03-27T18:05:14.144Z,99.90
2019-03-27T18:07:43.525Z,99.90
2019-03-27T18:10:13.188Z,99.90
2019-03-27T18:12:42.544Z,99.90
2019-03-27T18:15:12.182Z,99.90
2019-03-27T18:17:41.533Z,99.90
2019-03-27T18:20:11.131Z,99.90
2019-03-27T18:22:40.481Z,99.90
2019-03-27T18:25:10.115Z,99.90
2019-03-27T18:27:39.472Z,99.90
2019-03-27T18:30:09.074Z,99.90
2019-03-27T18:32:38.513Z,99.90
2019-03-27T18:35:08.134Z,99.90
2019-03-27T18:37:37.641Z,99.90
2019-03-27T18:40:07.628Z,99.90
2019-03-27T18:42:37.221Z,99.90
2019-03-27T18:45:10.915Z,99.90
2019-03-27T18:47:40.283Z,99.90
2019-03-27T18:50:10.033Z,99.90
2019-03-27T18:52:39.403Z,99.90
2019-03-27T18:55:08.999Z,99.90
2019-03-27T18:57:38.369Z,99.90
2019-03-27T19:00:10.349Z,99.90
2019-03-27T19:02:39.845Z,99.90
2019-03-27T19:05:09.521Z,99.90
2019-03-27T19:07:40.106Z,99.90
2019-03-27T19:10:12.310Z,99.90
2019-03-27T19:12:41.675Z,99.90
2019-03-27T19:15:11.026Z,99.90
2019-03-27T19:17:40.492Z,99.90
2019-03-27T19:20:10.111Z,99.90
2019-03-27T19:22:39.537Z,99.90
2019-03-27T19:25:09.044Z,99.90
2019-03-27T19:27:38.431Z,99.90
2019-03-27T19:30:09.428Z,99.90
2019-03-27T19:32:38.852Z,99.90
2019-03-27T19:35:08.384Z,99.90
2019-03-27T19:37:38.710Z,99.90
2019-03-27T19:40:08.632Z,99.90
2019-03-27T19:42:38.275Z,99.90
2019-03-27T19:45:07.948Z,99.90
2019-03-27T19:47:37.611Z,99.90
2019-03-27T19:50:07.386Z,99.90
2019-03-27T19:52:36.970Z,99.90
2019-03-27T19:55:06.474Z,99.90
2019-03-27T19:57:35.920Z,99.90
2019-03-27T20:00:10.627Z,99.90
2019-03-27T20:02:40.144Z,99.90
2019-03-27T20:05:09.642Z,99.90
2019-03-27T20:07:39.080Z,99.90
2019-03-27T20:10:09.656Z,99.90
2019-03-27T20:12:39.240Z,99.90
2019-03-27T20:15:12.480Z,99.90
2019-03-27T20:17:39.531Z,99.90
2019-03-27T20:20:09.891Z,99.90
2019-03-27T20:22:39.516Z,99.90
2019-03-27T20:25:09.311Z,99.90
2019-03-27T20:27:39.062Z,99.90
2019-03-27T20:30:14.466Z,99.90
2019-03-27T20:32:44.151Z,99.90
2019-03-27T20:35:13.636Z,99.90
2019-03-27T20:37:43.005Z,99.90
2019-03-27T20:40:13.037Z,99.90
2019-03-27T20:42:42.523Z,99.90
2019-03-27T20:45:12.775Z,99.90
2019-03-27T20:47:42.154Z,99.90
2019-03-27T20:50:13.114Z,99.90
2019-03-27T20:52:42.540Z,99.90
2019-03-27T20:55:12.152Z,99.90
2019-03-27T20:57:41.612Z,99.90
2019-03-27T21:00:14.113Z,99.90
2019-03-27T21:02:44.433Z,99.90
2019-03-27T21:05:14.144Z,99.90
2019-03-27T21:07:43.608Z,99.90
2019-03-27T21:10:13.795Z,99.90
2019-03-27T21:12:43.229Z,99.90
2019-03-27T21:15:12.877Z,99.90
2019-03-27T21:17:42.453Z,99.90
2019-03-27T21:20:12.075Z,99.90
2019-03-27T21:22:41.521Z,99.90
2019-03-27T21:25:12.036Z,99.90
2019-03-27T21:27:41.412Z,99.90
2019-03-27T21:30:11.670Z,99.90
2019-03-27T21:32:41.144Z,99.90
2019-03-27T21:35:10.957Z,99.90
2019-03-27T21:37:40.347Z,99.90
2019-03-27T21:40:10.177Z,99.90
2019-03-27T21:42:39.745Z,99.90
2019-03-27T21:45:10.043Z,99.90
2019-03-27T21:47:40.479Z,99.90
2019-03-27T21:50:11.450Z,99.90
2019-03-27T21:52:42.522Z,99.90
2019-03-27T21:55:22.417Z,99.90
2019-03-27T21:57:44.501Z,99.90
2019-03-27T22:00:17.057Z,99.90
2019-03-27T22:02:46.596Z,99.90
2019-03-27T22:05:16.194Z,99.90
2019-03-27T22:07:45.657Z,99.90
2019-03-27T22:10:15.115Z,99.90
2019-03-27T22:12:44.578Z,99.90
2019-03-27T22:15:14.245Z,99.90
2019-03-27T22:17:43.716Z,99.90
2019-03-27T22:20:13.382Z,99.90
2019-03-27T22:22:42.925Z,99.90
2019-03-27T22:25:12.532Z,99.90
2019-03-27T22:27:41.901Z,99.90
2019-03-27T22:30:11.769Z,99.90
2019-03-27T22:32:41.290Z,99.90
2019-03-27T22:35:10.922Z,99.90
2019-03-27T22:37:40.379Z,99.90
2019-03-27T22:40:09.969Z,99.90
2019-03-27T22:42:39.370Z,99.90
2019-03-27T22:45:08.905Z,99.90
2019-03-27T22:47:38.427Z,99.90
2019-03-27T22:50:08.796Z,99.90
2019-03-27T22:52:38.357Z,99.90
2019-03-27T22:55:08.095Z,99.90
2019-03-27T22:57:37.540Z,99.90
2019-03-27T23:00:11.592Z,99.90
2019-03-27T23:02:42.839Z,99.90
2019-03-27T23:05:12.611Z,99.90
2019-03-27T23:07:42.051Z,99.90
2019-03-27T23:10:11.872Z,99.90
2019-03-27T23:12:41.342Z,99.90
2019-03-27T23:15:13.771Z,99.90
2019-03-27T23:17:43.249Z,99.90
2019-03-27T23:20:12.843Z,99.90
2019-03-27T23:22:42.308Z,99.90
2019-03-27T23:25:12.104Z,99.90
2019-03-27T23:27:41.475Z,99.90
2019-03-27T23:30:11.528Z,99.90
2019-03-27T23:32:41.130Z,99.90
2019-03-27T23:35:10.777Z,99.90
2019-03-27T23:37:40.240Z,99.90
2019-03-27T23:40:09.880Z,99.90
2019-03-27T23:42:39.469Z,99.90
2019-03-27T23:45:09.388Z,99.90
2019-03-27T23:47:38.893Z,99.90
2019-03-27T23:50:09.561Z,99.90
2019-03-27T23:52:39.017Z,99.90
2019-03-27T23:55:08.715Z,99.90
2019-03-27T23:57:38.189Z,99.90
